Time,TemperatureF,DewpointF,PressureIn,WindDirection,WindDirectionDegrees,WindSpeedMPH,WindSpeedGustMPH,Humidity,HourlyPrecipIn,Conditions,Clouds,dailyrainin,SoftwareType,DateUTC
2013-07-22 00:11:00,65.0,65.0,-100.00,North,-999,0.0,0.0,100,-99.99,,,-99.99,,2013-07-22 07:11:00,
2013-07-22 00:22:00,65.0,65.0,-100.00,SE,131,1.0,2.0,100,-99.99,,,-99.99,,2013-07-22 07:22:00,
2013-07-22 00:33:00,65.0,65.0,-100.00,East,80,1.0,2.0,100,-99.99,,,-99.99,,2013-07-22 07:33:00,
2013-07-22 00:43:00,65.0,65.0,-100.00,SE,130,1.0,2.0,100,-99.99,,,-99.99,,2013-07-22 07:43:00,
2013-07-22 00:52:00,65.0,65.0,-100.00,ESE,111,1.0,1.0,100,-99.99,,,-99.99,,2013-07-22 07:52:00,
2013-07-22 01:11:00,65.0,65.0,-100.00,North,10,0.0,1.0,100,-99.99,,,-99.99,,2013-07-22 08:11:00,
2013-07-22 01:22:00,65.0,65.0,-100.00,North,-999,0.0,0.0,100,-99.99,,,-99.99,,2013-07-22 08:22:00,
2013-07-22 01:32:00,64.0,64.0,-100.00,NE,47,1.0,1.0,100,-99.99,,,-99.99,,2013-07-22 08:32:00,
2013-07-22 01:43:00,64.0,64.0,-100.00,ENE,60,1.0,1.0,100,-99.99,,,-99.99,,2013-07-22 08:43:00,
2013-07-22 01:52:00,64.0,64.0,-100.00,ENE,60,1.0,1.0,100,-99.99,,,-99.99,,2013-07-22 08:52:00,
2013-07-22 02:02:00,64.0,64.0,-100.00,ENE,61,0.0,2.0,100,-99.99,,,-99.99,,2013-07-22 09:02:00,
2013-07-22 02:22:00,63.0,63.0,-100.00,East,94,1.0,3.0,100,-99.99,,,-99.99,,2013-07-22 09:22:00,
2013-07-22 02:33:00,64.0,64.0,-100.00,ESE,113,0.0,1.0,100,-99.99,,,-99.99,,2013-07-22 09:33:00,
2013-07-22 02:52:00,64.0,64.0,-100.00,ESE,103,0.0,1.0,100,-99.99,,,-99.99,,2013-07-22 09:52:00,
2013-07-22 03:11:00,64.0,64.0,-100.00,North,-999,0.0,0.0,100,-99.99,,,-99.99,,2013-07-22 10:11:00,
2013-07-22 03:22:00,64.0,64.0,-100.00,NE,39,1.0,2.0,100,-99.99,,,-99.99,,2013-07-22 10:22:00,
2013-07-22 03:32:00,63.0,63.0,-100.00,East,99,0.0,1.0,100,-99.99,,,-99.99,,2013-07-22 10:32:00,
2013-07-22 03:43:00,64.0,64.0,-100.00,North,-999,0.0,0.0,100,-99.99,,,-99.99,,2013-07-22 10:43:00,
2013-07-22 03:52:00,64.0,64.0,-100.00,ESE,111,1.0,2.0,100,-99.99,,,-99.99,,2013-07-22 10:52:00,
2013-07-22 04:11:00,64.0,64.0,-100.00,East,81,1.0,2.0,100,-99.99,,,-99.99,,2013-07-22 11:11:00,
2013-07-22 04:22:00,64.0,64.0,-100.00,SE,137,0.0,1.0,100,-99.99,,,-99.99,,2013-07-22 11:22:00,
2013-07-22 04:32:00,64.0,64.0,-100.00,North,-999,0.0,0.0,100,-99.99,,,-99.99,,2013-07-22 11:32:00,
2013-07-22 04:52:00,63.0,63.0,-100.00,ESE,118,1.0,1.0,100,-99.99,,,-99.99,,2013-07-22 11:52:00,
2013-07-22 05:43:00,62.0,62.0,-100.00,SSE,154,0.0,1.0,100,-99.99,,,-99.99,,2013-07-22 12:43:00,
2013-07-22 05:52:00,62.0,62.0,-100.00,SSE,154,0.0,1.0,100,-99.99,,,-99.99,,2013-07-22 12:52:00,
2013-07-22 06:01:00,62.0,62.0,-100.00,SE,145,0.0,1.0,100,-99.99,,,-99.99,,2013-07-22 13:01:00,
2013-07-22 06:11:00,62.0,62.0,-100.00,ESE,113,1.0,2.0,100,-99.99,,,-99.99,,2013-07-22 13:11:00,
2013-07-22 06:32:00,62.0,62.0,-100.00,North,-999,0.0,0.0,100,-99.99,,,-99.99,,2013-07-22 13:32:00,
2013-07-22 06:43:00,62.0,62.0,-100.00,SE,126,1.0,1.0,100,-99.99,,,-99.99,,2013-07-22 13:43:00,
2013-07-22 06:53:00,62.0,62.0,-100.00,SE,126,1.0,1.0,100,-99.99,,,-99.99,,2013-07-22 13:53:00,
2013-07-22 07:22:00,64.0,64.0,-100.00,SSW,206,0.0,1.0,100,-99.99,,,-99.99,,2013-07-22 14:22:00,
2013-07-22 07:32:00,64.0,64.0,-100.00,SSW,206,0.0,1.0,100,-99.99,,,-99.99,,2013-07-22 14:32:00,
2013-07-22 07:42:00,65.0,65.0,-100.00,West,274,0.0,2.0,100,-99.99,,,-99.99,,2013-07-22 14:42:00,
2013-07-22 07:53:00,65.0,65.0,-100.00,West,274,0.0,2.0,100,-99.99,,,-99.99,,2013-07-22 14:53:00,
2013-07-22 08:01:00,67.0,67.0,-100.00,NNE,32,1.0,2.0,100,-99.99,,,-99.99,,2013-07-22 15:01:00,
2013-07-22 08:11:00,68.0,68.0,-100.00,North,353,1.0,2.0,100,-99.99,,,-99.99,,2013-07-22 15:11:00,
2013-07-22 08:32:00,68.0,68.0,-100.00,West,276,1.0,3.0,100,-99.99,,,-99.99,,2013-07-22 15:32:00,
2013-07-22 08:52:00,71.0,69.0,-100.00,North,358,0.0,2.0,94,-99.99,,,-99.99,,2013-07-22 15:52:00,
2013-07-22 09:01:00,72.0,69.0,-100.00,West,273,2.0,4.0,90,-99.99,,,-99.99,,2013-07-22 16:01:00,
2013-07-22 09:11:00,72.0,69.0,-100.00,WSW,256,2.0,4.0,89,-99.99,,,-99.99,,2013-07-22 16:11:00,
2013-07-22 09:21:00,72.0,69.0,-100.00,WSW,256,2.0,4.0,89,-99.99,,,-99.99,,2013-07-22 16:21:00,
2013-07-22 09:32:00,74.0,69.0,-100.00,West,264,4.0,7.0,85,-99.99,,,-99.99,,2013-07-22 16:32:00,
2013-07-22 09:52:00,73.0,71.0,-100.00,West,272,3.0,5.0,92,-99.99,,,-99.99,,2013-07-22 16:52:00,
2013-07-22 10:01:00,74.0,71.0,-100.00,West,274,4.0,8.0,89,-99.99,,,-99.99,,2013-07-22 17:01:00,
2013-07-22 10:11:00,74.0,71.0,-100.00,West,274,4.0,8.0,89,-99.99,,,-99.99,,2013-07-22 17:11:00,
2013-07-22 10:23:00,75.0,69.0,-100.00,SSW,192,3.0,7.0,83,-99.99,,,-99.99,,2013-07-22 17:23:00,
2013-07-22 10:32:00,75.0,69.0,-100.00,SSW,192,3.0,7.0,83,-99.99,,,-99.99,,2013-07-22 17:32:00,
2013-07-22 10:42:00,75.0,69.0,-100.00,SSW,194,3.0,8.0,83,-99.99,,,-99.99,,2013-07-22 17:42:00,
2013-07-22 10:52:00,75.0,71.0,-100.00,WSW,240,5.0,8.0,86,-99.99,,,-99.99,,2013-07-22 17:52:00,
2013-07-22 11:22:00,75.0,71.0,-100.00,WSW,253,5.0,10.0,87,-99.99,,,-99.99,,2013-07-22 18:22:00,
2013-07-22 11:33:00,75.0,71.0,-100.00,WSW,247,5.0,8.0,86,-99.99,,,-99.99,,2013-07-22 18:33:00,
2013-07-22 11:44:00,75.0,68.0,-100.00,West,264,5.0,11.0,79,-99.99,,,-99.99,,2013-07-22 18:44:00,
2013-07-22 11:53:00,75.0,68.0,-100.00,West,264,5.0,11.0,79,-99.99,,,-99.99,,2013-07-22 18:53:00,
2013-07-22 12:02:00,77.0,68.0,-100.00,West,270,5.0,10.0,75,-99.99,,,-99.99,,2013-07-22 19:02:00,
2013-07-22 12:12:00,77.0,68.0,-100.00,West,270,5.0,10.0,75,-99.99,,,-99.99,,2013-07-22 19:12:00,
2013-07-22 12:22:00,77.0,67.0,-100.00,WNW,286,4.0,10.0,72,-99.99,,,-99.99,,2013-07-22 19:22:00,
2013-07-22 12:43:00,77.0,66.0,-100.00,West,271,6.0,10.0,68,-99.99,,,-99.99,,2013-07-22 19:43:00,
2013-07-22 12:53:00,77.0,66.0,-100.00,West,271,6.0,10.0,68,-99.99,,,-99.99,,2013-07-22 19:53:00,
2013-07-22 13:02:00,77.0,66.0,-100.00,West,273,6.0,11.0,68,-99.99,,,-99.99,,2013-07-22 20:02:00,
2013-07-22 13:12:00,77.0,64.0,-100.00,West,278,5.0,12.0,65,-99.99,,,-99.99,,2013-07-22 20:12:00,
2013-07-22 13:32:00,77.0,66.0,-100.00,NW,306,4.0,9.0,69,-99.99,,,-99.99,,2013-07-22 20:32:00,
2013-07-22 13:43:00,78.0,65.0,-100.00,NNW,329,3.0,8.0,65,-99.99,,,-99.99,,2013-07-22 20:43:00,
2013-07-22 13:52:00,78.0,65.0,-100.00,NNW,329,3.0,8.0,65,-99.99,,,-99.99,,2013-07-22 20:52:00,
2013-07-22 14:01:00,79.0,64.0,-100.00,WNW,299,4.0,7.0,61,-99.99,,,-99.99,,2013-07-22 21:01:00,
2013-07-22 14:11:00,79.0,64.0,-100.00,WNW,299,4.0,7.0,61,-99.99,,,-99.99,,2013-07-22 21:11:00,
2013-07-22 14:32:00,78.0,66.0,-100.00,WNW,297,3.0,6.0,67,-99.99,,,-99.99,,2013-07-22 21:32:00,
2013-07-22 14:52:00,79.0,63.0,-100.00,West,269,5.0,11.0,58,-99.99,,,-99.99,,2013-07-22 21:52:00,
2013-07-22 15:01:00,80.0,62.0,-100.00,NW,306,3.0,8.0,54,-99.99,,,-99.99,,2013-07-22 22:01:00,
2013-07-22 15:32:00,79.0,60.0,-100.00,WSW,258,8.0,16.0,53,-99.99,,,-99.99,,2013-07-22 22:32:00,
2013-07-22 15:52:00,80.0,61.0,-100.00,West,261,8.0,15.0,52,-99.99,,,-99.99,,2013-07-22 22:52:00,
2013-07-22 16:01:00,80.0,61.0,-100.00,West,261,8.0,15.0,52,-99.99,,,-99.99,,2013-07-22 23:01:00,
2013-07-22 16:11:00,80.0,60.0,-100.00,WSW,257,8.0,15.0,50,-99.99,,,-99.99,,2013-07-22 23:11:00,
2013-07-22 16:22:00,80.0,60.0,-100.00,West,261,9.0,16.0,50,-99.99,,,-99.99,,2013-07-22 23:22:00,
2013-07-22 16:32:00,79.0,60.0,-100.00,West,259,9.0,13.0,52,-99.99,,,-99.99,,2013-07-22 23:32:00,
2013-07-22 16:42:00,80.0,59.0,-100.00,West,266,7.0,15.0,49,-99.99,,,-99.99,,2013-07-22 23:42:00,
2013-07-22 16:52:00,80.0,59.0,-100.00,West,266,7.0,15.0,49,-99.99,,,-99.99,,2013-07-22 23:52:00,
2013-07-22 17:01:00,80.0,59.0,-100.00,WSW,257,8.0,15.0,49,-99.99,,,-99.99,,2013-07-23 00:01:00,
2013-07-22 17:11:00,80.0,59.0,-100.00,WSW,257,8.0,15.0,49,-99.99,,,-99.99,,2013-07-23 00:11:00,
2013-07-22 17:22:00,80.0,59.0,-100.00,West,265,9.0,16.0,49,-99.99,,,-99.99,,2013-07-23 00:22:00,
2013-07-22 17:32:00,79.0,58.0,-100.00,West,261,9.0,15.0,49,-99.99,,,-99.99,,2013-07-23 00:32:00,
2013-07-22 17:52:00,79.0,59.0,-100.00,West,259,10.0,17.0,50,-99.99,,,-99.99,,2013-07-23 00:52:00,
2013-07-22 18:01:00,79.0,59.0,-100.00,West,263,10.0,16.0,50,-99.99,,,-99.99,,2013-07-23 01:01:00,
2013-07-22 18:11:00,78.0,58.0,-100.00,West,266,8.0,17.0,51,-99.99,,,-99.99,,2013-07-23 01:11:00,
2013-07-22 18:32:00,78.0,58.0,-100.00,West,259,8.0,13.0,51,-99.99,,,-99.99,,2013-07-23 01:32:00,
2013-07-22 18:53:00,77.0,59.0,-100.00,West,269,7.0,12.0,54,-99.99,,,-99.99,,2013-07-23 01:53:00,
2013-07-22 19:01:00,76.0,59.0,-100.00,West,261,7.0,11.0,55,-99.99,,,-99.99,,2013-07-23 02:01:00,
2013-07-22 19:11:00,76.0,59.0,-100.00,West,261,7.0,11.0,55,-99.99,,,-99.99,,2013-07-23 02:11:00,
2013-07-22 19:33:00,75.0,60.0,-100.00,West,259,6.0,10.0,59,-99.99,,,-99.99,,2013-07-23 02:33:00,
2013-07-22 19:43:00,74.0,60.0,-100.00,WSW,253,5.0,10.0,61,-99.99,,,-99.99,,2013-07-23 02:43:00,
2013-07-22 19:52:00,74.0,60.0,-100.00,WSW,253,5.0,10.0,61,-99.99,,,-99.99,,2013-07-23 02:52:00,
2013-07-22 20:01:00,73.0,61.0,-100.00,WSW,250,5.0,9.0,66,-99.99,,,-99.99,,2013-07-23 03:01:00,
2013-07-22 20:11:00,72.0,61.0,-100.00,WSW,244,4.0,7.0,68,-99.99,,,-99.99,,2013-07-23 03:11:00,
2013-07-22 20:22:00,72.0,61.0,-100.00,WSW,244,4.0,7.0,68,-99.99,,,-99.99,,2013-07-23 03:22:00,
2013-07-22 20:52:00,70.0,62.0,-100.00,WSW,251,4.0,7.0,75,-99.99,,,-99.99,,2013-07-23 03:52:00,
2013-07-22 21:01:00,69.0,62.0,-100.00,NNE,19,2.0,3.0,79,-99.99,,,-99.99,,2013-07-23 04:01:00,
2013-07-22 21:11:00,69.0,62.0,-100.00,NNE,19,2.0,3.0,79,-99.99,,,-99.99,,2013-07-23 04:11:00,
2013-07-22 21:21:00,69.0,63.0,-100.00,West,263,1.0,5.0,80,-99.99,,,-99.99,,2013-07-23 04:21:00,
2013-07-22 21:42:00,68.0,63.0,-100.00,North,349,0.0,2.0,83,-99.99,,,-99.99,,2013-07-23 04:42:00,
2013-07-22 21:53:00,68.0,63.0,-100.00,South,169,1.0,2.0,84,-99.99,,,-99.99,,2013-07-23 04:53:00,
2013-07-22 22:11:00,67.0,63.0,-100.00,ESE,104,1.0,2.0,87,-99.99,,,-99.99,,2013-07-23 05:11:00,
2013-07-22 22:22:00,66.0,62.0,-100.00,NE,56,1.0,2.0,87,-99.99,,,-99.99,,2013-07-23 05:22:00,
2013-07-22 22:33:00,66.0,62.0,-100.00,East,94,1.0,1.0,87,-99.99,,,-99.99,,2013-07-23 05:33:00,
2013-07-22 22:43:00,65.0,63.0,-100.00,SSE,148,1.0,2.0,93,-99.99,,,-99.99,,2013-07-23 05:43:00,
2013-07-22 22:52:00,65.0,63.0,-100.00,SSE,148,1.0,2.0,93,-99.99,,,-99.99,,2013-07-23 05:52:00,
2013-07-22 23:01:00,65.0,64.0,-100.00,ESE,109,2.0,2.0,95,-99.99,,,-99.99,,2013-07-23 06:01:00,
2013-07-22 23:21:00,65.0,64.0,-100.00,NE,47,0.0,1.0,95,-99.99,,,-99.99,,2013-07-23 06:21:00,
2013-07-22 23:52:00,64.0,63.0,-100.00,ESE,123,1.0,2.0,97,-99.99,,,-99.99,,2013-07-23 06:52:00,